createdAt,value
2022-09-25T00:01:06.799Z,16.87
2022-09-25T00:03:09.969Z,16.67
2022-09-25T00:05:12.004Z,14.63
2022-09-25T00:07:13.990Z,14.20
2022-09-25T00:09:20.328Z,12.37
2022-09-25T00:11:31.128Z,13.90
2022-09-25T00:13:34.027Z,13.17
2022-09-25T00:15:37.327Z,12.03
2022-09-25T00:17:39.869Z,12.53
2022-09-25T00:19:50.491Z,13.30
2022-09-25T00:21:53.752Z,12.50
2022-09-25T00:23:55.725Z,13.63
2022-09-25T00:25:59.773Z,14.33
2022-09-25T00:28:02.008Z,16.27
2022-09-25T00:30:05.162Z,16.63
2022-09-25T00:32:08.684Z,15.47
2022-09-25T00:34:11.168Z,14.77
2022-09-25T00:36:13.118Z,16.27
2022-09-25T00:38:15.086Z,16.10
2022-09-25T00:40:17.366Z,15.27
2022-09-25T00:42:20.589Z,15.60
2022-09-25T00:45:01.187Z,15.73
2022-09-25T00:47:03.819Z,15.37
2022-09-25T00:49:11.764Z,14.83
2022-09-25T00:51:13.875Z,14.40
2022-09-25T00:53:21.262Z,13.00
2022-09-25T00:55:26.047Z,14.53
2022-09-25T00:57:31.638Z,14.90
2022-09-25T00:59:36.920Z,15.30
2022-09-25T01:01:38.900Z,15.50
2022-09-25T01:03:41.725Z,15.27
2022-09-25T01:05:44.776Z,14.60
2022-09-25T01:07:48.289Z,15.47
2022-09-25T01:09:50.277Z,13.43
2022-09-25T01:11:52.200Z,14.63
2022-09-25T01:13:56.229Z,14.77
2022-09-25T01:16:04.530Z,14.17
2022-09-25T01:18:14.936Z,15.67
2022-09-25T01:20:32.731Z,14.33
2022-09-25T01:23:08.750Z,14.93
2022-09-25T01:25:25.949Z,14.00
2022-09-25T01:27:35.449Z,13.93
2022-09-25T01:29:41.562Z,14.50
2022-09-25T01:31:47.942Z,13.33
2022-09-25T01:33:57.402Z,13.17
2022-09-25T01:36:17.357Z,14.43
2022-09-25T01:38:24.195Z,13.47
2022-09-25T01:40:36.163Z,14.53
2022-09-25T01:42:46.360Z,14.57
2022-09-25T01:45:00.014Z,13.47
2022-09-25T01:47:18.496Z,12.50
2022-09-25T01:49:33.605Z,12.97
2022-09-25T01:51:41.936Z,13.17
2022-09-25T01:53:48.437Z,14.00
2022-09-25T01:55:57.890Z,13.20
2022-09-25T01:58:08.727Z,12.83
2022-09-25T02:00:13.527Z,15.10
2022-09-25T02:02:19.595Z,14.40
2022-09-25T02:04:28.707Z,14.00
2022-09-25T02:06:32.900Z,14.67
2022-09-25T02:08:39.746Z,14.50
2022-09-25T02:10:49.246Z,13.93
2022-09-25T02:12:54.079Z,14.90
2022-09-25T02:15:11.280Z,14.43
2022-09-25T02:17:37.265Z,15.17
2022-09-25T02:19:58.288Z,15.17
2022-09-25T02:22:15.760Z,17.40
2022-09-25T02:24:23.745Z,18.47
2022-09-25T02:26:31.205Z,17.70
2022-09-25T02:28:33.595Z,16.30
2022-09-25T02:30:35.714Z,17.03
2022-09-25T02:32:37.732Z,16.97
2022-09-25T02:34:39.784Z,17.10
2022-09-25T02:36:43.209Z,17.53
2022-09-25T02:38:45.742Z,16.43
2022-09-25T02:41:03.362Z,16.80
2022-09-25T02:43:23.086Z,16.07
2022-09-25T02:45:43.355Z,17.17
2022-09-25T02:47:51.902Z,17.37
2022-09-25T02:50:19.749Z,16.03
2022-09-25T02:52:27.901Z,15.40
2022-09-25T02:54:38.703Z,16.30
2022-09-25T02:56:45.121Z,16.30
2022-09-25T02:58:54.907Z,15.87
2022-09-25T03:00:57.875Z,16.00
2022-09-25T03:03:00.628Z,16.87
2022-09-25T03:05:03.935Z,17.47
2022-09-25T03:07:06.668Z,16.47
2022-09-25T03:09:10.086Z,16.67
2022-09-25T03:11:15.198Z,16.80
2022-09-25T03:13:34.125Z,17.50
2022-09-25T03:15:37.167Z,17.23
2022-09-25T03:17:42.129Z,27.13
2022-09-25T03:19:44.129Z,33.70
2022-09-25T03:21:47.454Z,35.47
2022-09-25T03:23:49.393Z,33.57
2022-09-25T03:25:54.813Z,33.00
2022-09-25T03:27:56.886Z,32.70
2022-09-25T03:29:58.881Z,29.57
2022-09-25T03:32:01.048Z,28.93
2022-09-25T03:34:03.021Z,29.50
2022-09-25T03:36:12.977Z,26.50
2022-09-25T03:38:15.040Z,25.47
2022-09-25T03:40:17.168Z,23.77
2022-09-25T03:42:20.113Z,22.50
2022-09-25T03:44:22.175Z,19.70
2022-09-25T03:46:26.712Z,21.60
2022-09-25T03:48:28.782Z,21.00
2022-09-25T03:50:30.998Z,25.50
2022-09-25T03:52:32.991Z,24.97
2022-09-25T03:54:34.916Z,22.67
2022-09-25T03:56:36.887Z,23.47
2022-09-25T03:58:38.986Z,22.13
2022-09-25T04:00:41.368Z,22.33
2022-09-25T04:02:43.446Z,20.20
2022-09-25T04:04:45.893Z,21.10
2022-09-25T04:06:47.880Z,20.70
2022-09-25T04:08:50.090Z,20.23
2022-09-25T04:10:52.831Z,20.73
2022-09-25T04:12:55.716Z,21.13
2022-09-25T04:14:57.648Z,20.63
2022-09-25T04:16:59.620Z,19.23
2022-09-25T04:19:01.633Z,20.03
2022-09-25T04:21:05.899Z,20.73
2022-09-25T04:23:07.903Z,18.53
2022-09-25T04:25:10.144Z,18.53
2022-09-25T04:27:12.217Z,18.80
2022-09-25T04:29:15.374Z,19.90
2022-09-25T04:31:17.507Z,17.90
2022-09-25T04:33:38.487Z,19.00
2022-09-25T04:35:43.701Z,18.67
2022-09-25T04:37:45.653Z,18.83
2022-09-25T04:39:47.609Z,16.87
2022-09-25T04:41:49.665Z,16.40
2022-09-25T04:43:51.652Z,15.77
2022-09-25T04:45:53.694Z,16.50
2022-09-25T04:47:56.434Z,16.73
2022-09-25T04:49:58.456Z,18.00
2022-09-25T04:52:00.500Z,17.60
2022-09-25T04:54:02.725Z,18.80
2022-09-25T04:56:12.260Z,20.73
2022-09-25T04:58:16.810Z,18.87
2022-09-25T05:00:19.631Z,20.00
2022-09-25T05:02:26.978Z,20.07
2022-09-25T05:04:29.032Z,18.87
2022-09-25T05:06:30.939Z,22.10
2022-09-25T05:08:33.017Z,21.20
2022-09-25T05:10:35.151Z,20.60
2022-09-25T05:12:37.909Z,19.73
2022-09-25T05:14:42.633Z,21.90
2022-09-25T05:16:46.209Z,20.80
2022-09-25T05:18:48.711Z,22.60
2022-09-25T05:20:51.392Z,23.60
2022-09-25T05:22:57.369Z,21.40
2022-09-25T05:24:59.368Z,21.07
2022-09-25T05:27:01.389Z,23.03
2022-09-25T05:29:04.868Z,23.50
2022-09-25T05:31:06.918Z,21.67
2022-09-25T05:33:08.947Z,21.07
2022-09-25T05:35:11.897Z,18.33
2022-09-25T05:37:13.949Z,18.53
2022-09-25T05:39:15.932Z,19.77
2022-09-25T05:41:18.717Z,19.50
2022-09-25T05:43:20.674Z,18.60
2022-09-25T05:45:25.808Z,20.50
2022-09-25T05:47:27.833Z,18.90
2022-09-25T05:49:29.744Z,18.40
2022-09-25T05:51:32.668Z,19.50
2022-09-25T05:53:34.688Z,19.30
2022-09-25T05:55:36.706Z,19.60
2022-09-25T05:57:39.107Z,17.27
2022-09-25T05:59:41.068Z,18.80
2022-09-25T06:01:43.114Z,17.20
2022-09-25T06:03:45.610Z,17.40
2022-09-25T06:05:48.997Z,16.90
2022-09-25T06:07:55.280Z,17.63
2022-09-25T06:09:57.177Z,16.87
2022-09-25T06:11:59.159Z,16.43
2022-09-25T06:14:01.681Z,17.53
2022-09-25T06:16:05.572Z,17.33
2022-09-25T06:18:09.089Z,16.50
2022-09-25T06:20:15.842Z,16.87
2022-09-25T06:22:18.193Z,16.53
2022-09-25T06:24:20.221Z,16.80
2022-09-25T06:26:22.241Z,17.27
2022-09-25T06:28:24.128Z,16.70
2022-09-25T06:30:30.984Z,17.40
2022-09-25T06:32:32.957Z,15.90
2022-09-25T06:34:34.907Z,17.90
2022-09-25T06:36:36.837Z,18.40
2022-09-25T06:38:38.813Z,17.30
2022-09-25T06:40:41.993Z,18.37
2022-09-25T06:42:46.164Z,16.90
2022-09-25T06:44:48.151Z,18.70
2022-09-25T06:46:51.100Z,17.30
2022-09-25T06:48:57.896Z,16.40
2022-09-25T06:51:01.222Z,16.50
2022-09-25T06:53:03.199Z,17.20
2022-09-25T06:55:05.568Z,18.67
2022-09-25T06:57:09.959Z,16.93
2022-09-25T06:59:11.962Z,18.17
2022-09-25T07:01:14.303Z,17.13
2022-09-25T07:03:34.881Z,16.80
2022-09-25T07:05:36.827Z,17.90
2022-09-25T07:07:38.761Z,16.27
2022-09-25T07:09:40.761Z,16.90
2022-09-25T07:11:44.171Z,17.43
2022-09-25T07:13:46.335Z,17.50
2022-09-25T07:16:01.291Z,18.13
2022-09-25T07:18:03.803Z,15.87
2022-09-25T07:20:07.107Z,17.00
2022-09-25T07:22:11.284Z,16.57
2022-09-25T07:24:13.351Z,16.77
2022-09-25T07:26:21.800Z,16.70
2022-09-25T07:28:23.957Z,17.13
2022-09-25T07:30:32.122Z,17.87
2022-09-25T07:32:34.645Z,20.43
2022-09-25T07:34:37.672Z,22.17
2022-09-25T07:36:41.211Z,20.70
2022-09-25T07:38:43.424Z,18.53
2022-09-25T07:40:46.068Z,21.30
2022-09-25T07:42:48.056Z,19.17
2022-09-25T07:44:50.212Z,19.20
2022-09-25T07:46:52.347Z,17.70
2022-09-25T07:48:54.861Z,16.67
2022-09-25T07:51:00.293Z,16.67
2022-09-25T07:53:02.278Z,16.10
2022-09-25T07:55:04.636Z,15.73
2022-09-25T07:57:06.662Z,15.30
2022-09-25T07:59:08.658Z,16.27
2022-09-25T08:01:13.170Z,16.40
2022-09-25T08:03:15.246Z,15.03
2022-09-25T08:05:17.314Z,17.13
2022-09-25T08:07:19.362Z,15.40
2022-09-25T08:09:21.317Z,12.40
2022-09-25T08:11:23.596Z,13.53
2022-09-25T08:13:25.611Z,15.93
2022-09-25T08:15:27.707Z,12.87
2022-09-25T08:17:31.250Z,13.73
2022-09-25T08:19:33.293Z,12.27
2022-09-25T08:21:35.595Z,12.70
2022-09-25T08:23:37.595Z,11.97
2022-09-25T08:25:39.599Z,12.03
2022-09-25T08:27:41.602Z,12.60
2022-09-25T08:29:43.555Z,13.87
2022-09-25T08:31:45.477Z,13.00
2022-09-25T08:33:48.558Z,12.93
2022-09-25T08:35:58.767Z,13.73
2022-09-25T08:38:00.752Z,13.83
2022-09-25T08:40:02.643Z,12.50
2022-09-25T08:42:05.665Z,13.23
2022-09-25T08:44:19.054Z,13.40
2022-09-25T08:46:44.032Z,13.97
2022-09-25T08:49:07.467Z,12.30
2022-09-25T08:51:09.915Z,12.70
2022-09-25T08:53:25.401Z,13.00
2022-09-25T08:55:50.070Z,12.80
2022-09-25T08:57:55.640Z,12.27
2022-09-25T09:00:03.932Z,11.80
2022-09-25T09:02:17.142Z,11.83
2022-09-25T09:04:34.836Z,10.97
2022-09-25T09:06:38.556Z,11.73
2022-09-25T09:08:41.774Z,11.67
2022-09-25T09:10:50.829Z,12.60
2022-09-25T09:13:11.281Z,11.33
2022-09-25T09:15:30.498Z,13.07
2022-09-25T09:17:39.593Z,11.90
2022-09-25T09:19:42.073Z,11.50
2022-09-25T09:21:50.187Z,11.10
2022-09-25T09:24:12.498Z,11.67
2022-09-25T09:26:36.035Z,11.63
2022-09-25T09:29:00.379Z,11.20
2022-09-25T09:31:18.835Z,11.57
2022-09-25T09:33:34.304Z,11.80
2022-09-25T09:35:45.250Z,12.47
2022-09-25T09:38:26.271Z,12.10
2022-09-25T09:40:35.755Z,10.67
2022-09-25T09:42:55.927Z,11.40
2022-09-25T09:45:03.558Z,10.60
2022-09-25T09:47:18.455Z,11.27
2022-09-25T09:49:34.309Z,11.20
2022-09-25T09:51:44.788Z,12.73
2022-09-25T09:53:50.081Z,12.80
2022-09-25T09:55:55.736Z,11.77
2022-09-25T09:58:05.039Z,12.90
2022-09-25T10:00:14.918Z,12.13
2022-09-25T10:02:40.669Z,12.33
2022-09-25T10:04:43.588Z,11.43
2022-09-25T10:06:54.152Z,11.63
2022-09-25T10:08:56.115Z,10.90
2022-09-25T10:10:59.272Z,12.40
2022-09-25T10:13:06.640Z,13.10
2022-09-25T10:15:16.792Z,12.10
2022-09-25T10:17:19.563Z,11.97
2022-09-25T10:19:26.218Z,12.47
2022-09-25T10:21:59.572Z,11.03
2022-09-25T10:24:03.456Z,12.43
2022-09-25T10:26:27.797Z,10.57
2022-09-25T10:28:32.851Z,10.03
2022-09-25T10:30:34.772Z,10.87
2022-09-25T10:32:57.730Z,8.93
2022-09-25T10:35:00.082Z,9.90
2022-09-25T10:37:19.674Z,10.43
2022-09-25T10:39:48.964Z,9.50
2022-09-25T10:41:51.776Z,8.30
2022-09-25T10:44:00.187Z,9.23
2022-09-25T10:46:07.821Z,8.43
2022-09-25T10:48:49.502Z,9.10
2022-09-25T10:51:08.763Z,9.77
2022-09-25T10:53:30.531Z,9.57
2022-09-25T10:55:36.547Z,9.73
2022-09-25T10:57:39.209Z,8.90
2022-09-25T10:59:48.522Z,10.43
2022-09-25T11:01:53.170Z,7.60
2022-09-25T11:03:57.022Z,9.17
2022-09-25T11:06:08.832Z,8.93
2022-09-25T11:08:16.303Z,9.50
2022-09-25T11:10:30.631Z,13.10
2022-09-25T11:12:32.696Z,9.40
2022-09-25T11:14:35.728Z,8.70
2022-09-25T11:16:51.640Z,10.40
2022-09-25T11:19:07.379Z,8.83
2022-09-25T11:21:18.015Z,9.10
2022-09-25T11:23:32.411Z,7.63
2022-09-25T11:25:43.845Z,9.83
2022-09-25T11:27:54.419Z,8.30
2022-09-25T11:30:18.944Z,9.30
2022-09-25T11:32:47.691Z,8.13
2022-09-25T11:35:24.485Z,7.50
2022-09-25T11:38:02.472Z,6.60
2022-09-25T11:40:29.661Z,6.50
2022-09-25T11:43:01.720Z,6.00
2022-09-25T11:45:27.232Z,6.07
2022-09-25T11:47:37.669Z,5.87
2022-09-25T11:49:41.196Z,6.20
2022-09-25T11:52:17.224Z,6.40
2022-09-25T11:54:50.553Z,5.63
2022-09-25T11:57:11.805Z,6.17
2022-09-25T11:59:38.506Z,5.90
2022-09-25T12:01:55.933Z,6.77
2022-09-25T12:04:30.401Z,5.50
2022-09-25T12:06:55.155Z,6.23
2022-09-25T12:09:17.373Z,6.07
2022-09-25T12:11:41.356Z,5.00
2022-09-25T12:14:15.356Z,6.17
2022-09-25T12:16:26.054Z,6.13
2022-09-25T12:18:37.017Z,10.60
2022-09-25T12:21:00.024Z,6.90
2022-09-25T12:23:05.184Z,6.60
2022-09-25T12:25:19.694Z,9.17
2022-09-25T12:27:24.738Z,8.57
2022-09-25T12:29:50.021Z,6.57
2022-09-25T12:31:58.043Z,4.80
2022-09-25T12:34:23.782Z,5.30
2022-09-25T12:36:35.537Z,5.20
2022-09-25T12:39:16.027Z,7.57
2022-09-25T12:41:43.038Z,5.80
2022-09-25T12:43:52.026Z,6.10
2022-09-25T12:45:59.020Z,5.70
2022-09-25T12:48:21.468Z,5.37
2022-09-25T12:50:28.896Z,5.60
2022-09-25T12:52:43.354Z,5.40
2022-09-25T12:55:02.552Z,6.10
2022-09-25T12:57:13.447Z,6.40
2022-09-25T12:59:19.628Z,5.87
2022-09-25T13:01:24.706Z,5.73
2022-09-25T13:03:43.820Z,6.87
2022-09-25T13:06:44.596Z,5.20
2022-09-25T13:08:53.004Z,5.70
2022-09-25T13:11:14.901Z,7.30
2022-09-25T13:13:20.048Z,7.10
2022-09-25T13:15:25.403Z,6.87
2022-09-25T13:17:27.312Z,7.37
2022-09-25T13:19:33.101Z,8.60
2022-09-25T13:21:37.020Z,7.23
2022-09-25T13:23:41.449Z,7.63
2022-09-25T13:26:00.327Z,7.30
2022-09-25T13:28:07.613Z,8.00
2022-09-25T13:30:20.646Z,6.73
2022-09-25T13:32:24.875Z,7.80
2022-09-25T13:34:26.852Z,7.70
2022-09-25T13:36:47.509Z,7.00
2022-09-25T13:39:12.797Z,6.83
2022-09-25T13:41:15.254Z,9.67
2022-09-25T13:43:25.702Z,8.40
2022-09-25T13:45:33.127Z,7.80
2022-09-25T13:47:40.686Z,7.70
2022-09-25T13:49:50.686Z,8.53
2022-09-25T13:51:53.621Z,15.57
2022-09-25T13:53:59.901Z,8.67
2022-09-25T13:56:02.271Z,9.77
2022-09-25T13:58:04.332Z,9.37
2022-09-25T14:00:15.802Z,9.03
2022-09-25T14:02:43.622Z,7.70
2022-09-25T14:04:48.310Z,7.63
2022-09-25T14:06:54.626Z,8.73
2022-09-25T14:08:59.103Z,8.10
2022-09-25T14:11:05.504Z,7.67
2022-09-25T14:13:07.634Z,7.10
2022-09-25T14:15:22.597Z,7.17
2022-09-25T14:17:29.814Z,8.10
2022-09-25T14:19:39.054Z,7.03
2022-09-25T14:21:44.049Z,9.57
2022-09-25T14:24:11.794Z,9.00
2022-09-25T14:26:26.465Z,9.63
2022-09-25T14:28:31.305Z,11.07
2022-09-25T14:30:33.276Z,11.23
2022-09-25T14:32:55.168Z,10.50
2022-09-25T14:35:12.888Z,10.87
2022-09-25T14:37:15.715Z,10.27
2022-09-25T14:39:39.311Z,9.60
2022-09-25T14:41:54.439Z,7.20
2022-09-25T14:44:18.091Z,8.40
2022-09-25T14:46:21.148Z,8.17
2022-09-25T14:48:37.769Z,7.57
2022-09-25T14:50:46.830Z,8.97
2022-09-25T14:52:50.583Z,8.60
2022-09-25T14:54:55.553Z,8.37
2022-09-25T14:56:58.327Z,9.20
2022-09-25T14:59:03.383Z,9.00
2022-09-25T15:01:27.549Z,8.47
2022-09-25T15:03:31.360Z,8.50
2022-09-25T15:05:37.705Z,8.33
2022-09-25T15:07:42.768Z,8.20
2022-09-25T15:09:49.606Z,8.30
2022-09-25T15:11:54.058Z,7.77
2022-09-25T15:14:10.220Z,6.70
2022-09-25T15:16:40.141Z,5.27
2022-09-25T15:18:43.884Z,5.23
2022-09-25T15:20:48.006Z,5.43
2022-09-25T15:23:07.330Z,5.60
2022-09-25T15:25:18.894Z,5.70
2022-09-25T15:27:22.474Z,6.10
2022-09-25T15:29:25.506Z,6.60
2022-09-25T15:31:36.369Z,5.73
2022-09-25T15:33:39.763Z,5.87
2022-09-25T15:35:41.714Z,6.90
2022-09-25T15:37:44.576Z,6.60
2022-09-25T15:39:46.776Z,6.27
2022-09-25T15:41:48.878Z,6.80
2022-09-25T15:43:53.994Z,8.00
2022-09-25T15:45:59.158Z,7.50
2022-09-25T15:48:03.113Z,7.53
2022-09-25T15:50:06.993Z,7.30
2022-09-25T15:52:32.655Z,7.90
2022-09-25T15:54:38.552Z,8.30
2022-09-25T15:56:49.171Z,9.30
2022-09-25T15:59:01.101Z,9.53
2022-09-25T16:01:22.124Z,9.10
2022-09-25T16:03:44.886Z,16.03
2022-09-25T16:05:48.709Z,10.30
2022-09-25T16:07:50.650Z,10.33
2022-09-25T16:09:54.980Z,10.30
2022-09-25T16:12:58.772Z,9.47
2022-09-25T16:15:26.220Z,9.23
2022-09-25T16:17:37.158Z,8.70
2022-09-25T16:19:41.176Z,7.90
2022-09-25T16:21:43.257Z,7.63
2022-09-25T16:23:58.177Z,7.63
2022-09-25T16:26:01.253Z,7.20
2022-09-25T16:28:08.422Z,7.20
2022-09-25T16:30:19.731Z,6.53
2022-09-25T16:32:22.170Z,6.67
2022-09-25T16:34:28.239Z,7.00
2022-09-25T16:36:41.967Z,7.03
2022-09-25T16:39:04.584Z,6.50
2022-09-25T16:41:17.252Z,7.73
2022-09-25T16:43:25.511Z,7.70
2022-09-25T16:45:31.715Z,6.90
2022-09-25T16:47:35.027Z,7.17
2022-09-25T16:49:37.066Z,7.17
2022-09-25T16:51:45.387Z,7.53
2022-09-25T16:53:50.738Z,6.53
2022-09-25T16:55:53.897Z,6.60
2022-09-25T16:57:56.993Z,6.33
2022-09-25T16:59:59.140Z,6.90
2022-09-25T17:02:19.388Z,6.50
2022-09-25T17:04:29.062Z,6.97
2022-09-25T17:06:35.278Z,7.23
2022-09-25T17:08:37.373Z,7.03
2022-09-25T17:10:40.647Z,7.23
2022-09-25T17:12:47.700Z,8.73
2022-09-25T17:14:53.414Z,7.50
2022-09-25T17:16:56.669Z,7.80
2022-09-25T17:19:01.467Z,7.20
2022-09-25T17:21:07.062Z,7.33
2022-09-25T17:23:09.455Z,6.53
2022-09-25T17:25:21.991Z,6.83
2022-09-25T17:27:24.062Z,6.67
2022-09-25T17:29:28.090Z,6.63
2022-09-25T17:31:30.384Z,7.30
2022-09-25T17:33:32.836Z,7.40
2022-09-25T17:35:43.059Z,7.77
2022-09-25T17:37:45.078Z,7.03
2022-09-25T17:39:47.073Z,7.50
2022-09-25T17:41:49.181Z,8.13
2022-09-25T17:43:52.291Z,8.10
2022-09-25T17:45:58.848Z,8.90
2022-09-25T17:48:01.422Z,9.30
2022-09-25T17:50:03.512Z,9.63
2022-09-25T17:52:05.608Z,8.37
2022-09-25T17:54:07.957Z,8.50
2022-09-25T17:56:11.175Z,9.10
2022-09-25T17:58:13.085Z,9.40
2022-09-25T18:00:15.652Z,8.47
2022-09-25T18:02:17.896Z,8.43
2022-09-25T18:04:22.798Z,9.73
2022-09-25T18:06:26.418Z,9.73
2022-09-25T18:08:28.498Z,9.97
2022-09-25T18:10:30.549Z,10.13
2022-09-25T18:12:32.498Z,10.80
2022-09-25T18:14:35.178Z,10.97
2022-09-25T18:16:37.463Z,10.90
2022-09-25T18:18:58.126Z,9.87
2022-09-25T18:21:18.346Z,9.90
2022-09-25T18:23:20.307Z,10.97
2022-09-25T18:25:22.348Z,10.90
2022-09-25T18:27:26.365Z,9.33
2022-09-25T18:29:28.340Z,10.20
2022-09-25T18:31:30.523Z,10.40
2022-09-25T18:33:32.528Z,8.73
2022-09-25T18:35:34.514Z,9.70
2022-09-25T18:37:36.560Z,9.67
2022-09-25T18:39:38.921Z,9.57
2022-09-25T18:41:43.898Z,8.80
2022-09-25T18:43:45.837Z,9.30
2022-09-25T18:45:51.123Z,9.90
2022-09-25T18:47:54.153Z,8.80
2022-09-25T18:49:56.121Z,9.33
2022-09-25T18:51:58.231Z,8.80
2022-09-25T18:54:00.464Z,9.77
2022-09-25T18:56:02.407Z,10.07
2022-09-25T18:58:04.372Z,9.03
2022-09-25T19:00:06.783Z,10.03
2022-09-25T19:02:23.301Z,9.47
2022-09-25T19:04:25.995Z,9.70
2022-09-25T19:06:27.945Z,10.17
2022-09-25T19:08:30.974Z,10.10
2022-09-25T19:10:35.579Z,10.47
2022-09-25T19:12:37.544Z,10.27
2022-09-25T19:14:39.439Z,11.67
2022-09-25T19:16:41.507Z,12.57
2022-09-25T19:18:44.109Z,12.40
2022-09-25T19:20:48.184Z,11.60
2022-09-25T19:22:50.747Z,11.80
2022-09-25T19:24:54.476Z,12.53
2022-09-25T19:26:56.648Z,10.93
2022-09-25T19:29:00.431Z,11.70
2022-09-25T19:31:07.708Z,11.73
2022-09-25T19:33:09.683Z,12.10
2022-09-25T19:35:11.891Z,10.30
2022-09-25T19:37:15.200Z,10.43
2022-09-25T19:39:17.254Z,10.90
2022-09-25T19:41:22.772Z,11.27
2022-09-25T19:43:24.760Z,11.33
2022-09-25T19:45:26.763Z,9.33
2022-09-25T19:47:28.914Z,11.27
2022-09-25T19:49:30.970Z,11.00
2022-09-25T19:51:32.878Z,9.60
2022-09-25T19:53:35.805Z,10.70
2022-09-25T19:55:37.985Z,10.13
2022-09-25T19:57:40.064Z,11.17
2022-09-25T19:59:41.998Z,10.97
2022-09-25T20:01:44.369Z,10.60
2022-09-25T20:03:46.743Z,11.50
2022-09-25T20:05:49.325Z,10.80
2022-09-25T20:07:51.396Z,10.87
2022-09-25T20:09:53.326Z,11.47
2022-09-25T20:11:55.380Z,10.30
2022-09-25T20:13:57.826Z,11.13
2022-09-25T20:16:08.600Z,11.10
2022-09-25T20:18:10.662Z,10.27
2022-09-25T20:20:13.299Z,10.90
2022-09-25T20:22:15.812Z,10.20
2022-09-25T20:24:18.689Z,11.53
2022-09-25T20:26:21.326Z,10.87
2022-09-25T20:28:23.320Z,10.90
2022-09-25T20:30:25.770Z,13.27
2022-09-25T20:32:27.786Z,10.97
2022-09-25T20:34:29.792Z,11.10
2022-09-25T20:36:31.801Z,11.60
2022-09-25T20:38:33.891Z,10.80
2022-09-25T20:40:38.930Z,11.40
2022-09-25T20:42:41.442Z,11.53
2022-09-25T20:44:44.244Z,11.43
2022-09-25T20:46:46.254Z,10.87
2022-09-25T20:48:51.439Z,11.30
2022-09-25T20:50:54.781Z,11.60
2022-09-25T20:52:57.333Z,12.23
2022-09-25T20:54:59.743Z,12.20
2022-09-25T20:57:01.736Z,11.67
2022-09-25T20:59:05.092Z,10.70
2022-09-25T21:01:12.685Z,11.00
2022-09-25T21:03:14.961Z,11.00
2022-09-25T21:05:17.019Z,9.60
2022-09-25T21:07:19.316Z,10.87
2022-09-25T21:09:25.657Z,11.27
2022-09-25T21:11:29.794Z,10.40
2022-09-25T21:13:33.328Z,10.53
2022-09-25T21:15:35.365Z,10.70
2022-09-25T21:17:37.315Z,10.13
2022-09-25T21:19:40.098Z,10.57
2022-09-25T21:21:42.254Z,10.20
2022-09-25T21:23:50.183Z,10.00
2022-09-25T21:25:52.535Z,9.50
2022-09-25T21:27:54.510Z,10.27
2022-09-25T21:29:56.442Z,10.60
2022-09-25T21:31:58.433Z,9.37
2022-09-25T21:34:00.526Z,10.10
2022-09-25T21:36:03.351Z,10.27
2022-09-25T21:38:05.503Z,9.60
2022-09-25T21:40:07.990Z,9.40
2022-09-25T21:42:10.041Z,10.00
2022-09-25T21:44:14.550Z,9.87
2022-09-25T21:46:18.536Z,9.90
2022-09-25T21:48:20.711Z,10.00
2022-09-25T21:50:22.700Z,9.80
2022-09-25T21:52:25.542Z,9.50
2022-09-25T21:54:28.372Z,9.33
2022-09-25T21:56:31.836Z,9.50
2022-09-25T21:58:34.711Z,8.67
2022-09-25T22:00:36.763Z,9.17
2022-09-25T22:02:39.617Z,9.80
2022-09-25T22:04:41.718Z,10.00
2022-09-25T22:06:47.055Z,10.20
2022-09-25T22:08:53.385Z,8.50
2022-09-25T22:10:59.326Z,8.83
2022-09-25T22:13:02.652Z,8.67
2022-09-25T22:15:05.123Z,8.70
2022-09-25T22:17:07.086Z,9.27
2022-09-25T22:19:17.233Z,8.10
2022-09-25T22:21:21.312Z,8.07
2022-09-25T22:23:24.034Z,8.20
2022-09-25T22:25:25.989Z,8.73
2022-09-25T22:27:28.359Z,9.10
2022-09-25T22:29:30.423Z,8.53
2022-09-25T22:31:33.944Z,9.17
2022-09-25T22:33:36.137Z,10.30
2022-09-25T22:35:38.419Z,9.30
2022-09-25T22:37:40.539Z,9.97
2022-09-25T22:39:42.790Z,9.63
2022-09-25T22:41:45.372Z,9.70
2022-09-25T22:43:50.673Z,9.80
2022-09-25T22:45:53.539Z,10.17
2022-09-25T22:47:56.003Z,9.07
2022-09-25T22:49:57.912Z,9.50
2022-09-25T22:51:59.976Z,9.93
2022-09-25T22:54:01.957Z,9.93
2022-09-25T22:56:22.128Z,9.07
2022-09-25T22:58:24.196Z,10.03
2022-09-25T23:00:26.287Z,9.87
2022-09-25T23:02:28.211Z,10.37
2022-09-25T23:04:30.217Z,9.50
2022-09-25T23:06:34.765Z,10.30
2022-09-25T23:08:36.946Z,10.77
2022-09-25T23:11:05.785Z,9.00
2022-09-25T23:13:01.290Z,9.60
2022-09-25T23:15:03.430Z,9.50
2022-09-25T23:17:05.421Z,9.83
2022-09-25T23:19:07.537Z,10.60
2022-09-25T23:21:09.554Z,9.50
2022-09-25T23:23:11.564Z,9.83
2022-09-25T23:25:13.494Z,10.30
2022-09-25T23:27:15.434Z,10.43
2022-09-25T23:29:19.214Z,9.97
2022-09-25T23:31:22.051Z,9.40
2022-09-25T23:33:24.132Z,9.77
2022-09-25T23:35:26.032Z,9.40
2022-09-25T23:37:28.624Z,8.43
2022-09-25T23:39:30.607Z,9.40
2022-09-25T23:41:37.852Z,8.00
2022-09-25T23:43:39.884Z,8.17
2022-09-25T23:45:42.140Z,8.07
2022-09-25T23:47:44.145Z,8.10
2022-09-25T23:49:46.102Z,8.20
2022-09-25T23:51:48.185Z,8.50
2022-09-25T23:53:50.364Z,7.50
2022-09-25T23:55:52.265Z,9.53
2022-09-25T23:57:54.275Z,8.90
2022-09-25T23:59:56.599Z,8.30
